Time;durP1;ratioP1;P1;durP2;ratioP2;P2;SDS_P1;SDS_P2;PMS_P1;PMS_P2;Temp;Humidity;BMP_temperature;BMP_pressure;BME280_temperature;BME280_humidity;BME280_pressure;Samples;Min_cycle;Max_cycle;Signal;HPM_P1;HPM_P2
2022/02/09 00:01:21;;;;;;;7.22;4.60;;;9.90;85.20;;;;;;5095670;28;20420;-72
2022/02/09 00:04:02;;;;;;;5.90;4.03;;;9.90;84.60;;;;;;5094341;28;20032;-72
2022/02/09 00:06:42;;;;;;;7.60;4.95;;;10.00;84.70;;;;;;5076022;28;20111;-72
2022/02/09 00:09:08;;;;;;;9.07;4.72;;;10.00;84.70;;;;;;5094322;28;20016;-72
2022/02/09 00:12:02;;;;;;;8.60;5.03;;;10.10;84.50;;;;;;5094023;28;20084;-72
2022/02/09 00:27:57;;;;;;;7.95;5.55;;;10.00;84.80;;;;;;5093054;28;20024;-72
2022/02/09 00:35:35;;;;;;;6.43;4.97;;;10.00;84.80;;;;;;5093484;28;20031;-72
2022/02/09 01:38:19;;;;;;;7.63;4.90;;;10.60;83.80;;;;;;4997405;28;20454;-73
2022/02/09 01:56:56;;;;;;;7.43;5.20;;;10.50;83.90;;;;;;5096801;28;20073;-73
2022/02/09 01:59:23;;;;;;;6.88;4.93;;;10.50;83.50;;;;;;5094466;28;20032;-73
2022/02/09 02:01:48;;;;;;;9.18;6.40;;;10.50;83.90;;;;;;5093552;28;20399;-73
2022/02/09 02:04:14;;;;;;;8.80;5.82;;;10.60;83.70;;;;;;5098257;28;20540;-72
2022/02/09 02:06:45;;;;;;;5.82;4.50;;;10.60;83.50;;;;;;5096358;28;20036;-73
2022/02/09 02:09:12;;;;;;;8.00;5.50;;;10.60;83.50;;;;;;5096110;28;20556;-73
2022/02/09 02:11:49;;;;;;;8.95;5.28;;;10.70;83.20;;;;;;5094769;28;20077;-73
2022/02/09 02:22:06;;;;;;;10.00;5.22;;;10.70;82.60;;;;;;5095769;28;20127;-73
2022/02/09 03:17:14;;;;;;;9.45;7.43;;;10.60;82.80;;;;;;5030574;28;20604;-73
2022/02/09 03:57:23;;;;;;;11.85;7.70;;;10.30;83.10;;;;;;5093938;28;20515;-73
2022/02/09 03:59:17;;;;;;;12.70;7.50;;;10.40;83.30;;;;;;5070287;28;20036;-73
2022/02/09 04:01:44;;;;;;;11.52;7.72;;;10.40;83.30;;;;;;5094004;28;20032;-73
2022/02/09 04:04:10;;;;;;;10.30;6.93;;;10.40;83.40;;;;;;5095852;28;20051;-73
2022/02/09 04:06:37;;;;;;;13.35;6.95;;;10.50;83.70;;;;;;5094732;28;20140;-73
2022/02/09 04:09:07;;;;;;;12.43;7.47;;;10.40;83.30;;;;;;5097875;28;20049;-73
2022/02/09 04:12:02;;;;;;;11.98;7.57;;;10.40;83.30;;;;;;5098135;28;20023;-73
2022/02/09 04:19:45;;;;;;;15.45;7.30;;;10.40;83.80;;;;;;5100564;28;20031;-73
2022/02/09 04:38:42;;;;;;;10.43;6.70;;;10.40;83.40;;;;;;5097475;28;20054;-73
2022/02/09 04:46:48;;;;;;;14.52;7.68;;;10.50;83.60;;;;;;5100640;28;20070;-73
2022/02/09 04:54:42;;;;;;;13.40;7.30;;;10.30;83.30;;;;;;5098080;28;20128;-73
2022/02/09 04:57:49;;;;;;;11.35;7.50;;;10.40;83.50;;;;;;5099502;28;20709;-73
2022/02/09 05:18:46;;;;;;;11.07;6.45;;;10.30;83.20;;;;;;5097598;28;20554;-73
2022/02/09 05:29:12;;;;;;;10.82;6.25;;;10.40;83.10;;;;;;5094437;28;19930;-73
2022/02/09 05:31:38;;;;;;;10.45;6.78;;;10.40;82.90;;;;;;5097658;28;20553;-73
2022/02/09 05:34:04;;;;;;;11.18;6.65;;;10.40;83.30;;;;;;5098058;28;20527;-73
2022/02/09 05:36:29;;;;;;;13.30;6.97;;;10.40;83.40;;;;;;5097240;28;20137;-73
2022/02/09 05:38:56;;;;;;;13.98;7.53;;;10.50;83.10;;;;;;5096667;28;20102;-73
2022/02/09 05:41:22;;;;;;;9.77;5.50;;;10.50;83.30;;;;;;5095045;28;20381;-73
2022/02/09 05:43:48;;;;;;;9.23;5.20;;;10.40;82.60;;;;;;5095589;28;20064;-73
2022/02/09 05:51:38;;;;;;;9.75;5.53;;;10.40;82.50;;;;;;5097024;28;20039;-74
2022/02/09 05:56:43;;;;;;;11.90;6.55;;;10.40;82.30;;;;;;5096838;28;20024;-74
2022/02/09 06:01:38;;;;;;;9.55;5.28;;;10.30;82.40;;;;;;5097570;28;20020;-74
2022/02/09 06:04:04;;;;;;;8.88;5.40;;;10.40;82.30;;;;;;5077654;28;20032;-73
2022/02/09 06:06:30;;;;;;;8.10;5.63;;;10.40;82.50;;;;;;5096576;28;20020;-74
2022/02/09 06:08:56;;;;;;;10.00;5.63;;;10.30;82.40;;;;;;5096087;28;20153;-73
2022/02/09 06:14:25;;;;;;;9.60;4.68;;;10.30;82.10;;;;;;5092707;28;22540;-74
2022/02/09 06:22:01;;;;;;;7.88;4.95;;;10.30;82.10;;;;;;5096425;28;20063;-74
2022/02/09 06:24:27;;;;;;;7.65;4.70;;;10.30;81.90;;;;;;5085096;28;20023;-74
2022/02/09 06:26:53;;;;;;;10.30;6.03;;;10.40;82.40;;;;;;5082522;28;20028;-74
2022/02/09 06:29:19;;;;;;;9.35;5.20;;;10.40;82.20;;;;;;5107673;28;20024;-74
2022/02/09 06:31:46;;;;;;;9.77;5.25;;;10.40;82.40;;;;;;5094524;28;20085;-74
2022/02/09 06:34:14;;;;;;;10.98;6.45;;;10.40;82.00;;;;;;5106682;28;20074;-74
2022/02/09 06:36:41;;;;;;;9.05;5.65;;;10.30;81.60;;;;;;5098144;28;20453;-74
2022/02/09 06:39:08;;;;;;;8.57;5.20;;;10.30;81.60;;;;;;5095867;28;20024;-73
2022/02/09 06:41:35;;;;;;;9.80;6.05;;;10.20;81.70;;;;;;5095609;28;20035;-73
2022/02/09 06:44:02;;;;;;;9.68;5.82;;;10.00;82.60;;;;;;5091556;28;20094;-73
2022/02/09 06:46:33;;;;;;;10.93;6.13;;;10.00;82.00;;;;;;5113299;28;20426;-73
2022/02/09 06:49:04;;;;;;;9.23;5.68;;;10.10;82.60;;;;;;5103004;28;20027;-73
2022/02/09 06:51:33;;;;;;;8.70;5.72;;;10.00;81.80;;;;;;5099663;28;20028;-74
2022/02/09 06:54:04;;;;;;;9.18;5.88;;;9.90;82.10;;;;;;5095458;28;20028;-74
2022/02/09 06:56:58;;;;;;;10.18;5.60;;;10.00;82.40;;;;;;5094622;28;20058;-75
2022/02/09 06:59:34;;;;;;;10.65;6.15;;;10.10;82.10;;;;;;5080564;28;20016;-74
2022/02/09 07:02:04;;;;;;;8.40;5.38;;;10.10;82.10;;;;;;5072998;28;20035;-74
2022/02/09 07:04:31;;;;;;;10.02;6.13;;;10.10;82.40;;;;;;5104427;28;20023;-74
2022/02/09 07:06:57;;;;;;;10.05;6.05;;;10.10;82.30;;;;;;5093914;28;20045;-74
2022/02/09 07:09:23;;;;;;;8.48;5.65;;;10.10;81.90;;;;;;5099885;28;20516;-74
2022/02/09 07:11:50;;;;;;;8.65;5.38;;;10.10;82.20;;;;;;5094861;28;20063;-74
2022/02/09 07:14:21;;;;;;;9.25;5.68;;;10.20;82.20;;;;;;5092383;28;20123;-74
2022/02/09 07:16:47;;;;;;;9.38;6.05;;;10.20;82.00;;;;;;5093100;28;20028;-73
2022/02/09 07:19:12;;;;;;;9.60;5.28;;;10.20;82.00;;;;;;5096899;28;20062;-74
2022/02/09 07:21:40;;;;;;;9.73;6.00;;;10.00;81.20;;;;;;5094765;28;20031;-74
2022/02/09 07:24:08;;;;;;;10.25;6.68;;;9.90;81.50;;;;;;5094907;28;20111;-74
2022/02/09 07:27:23;;;;;;;7.68;5.50;;;10.00;82.30;;;;;;5094555;28;20380;-74
2022/02/09 07:29:22;;;;;;;8.65;5.97;;;10.00;82.40;;;;;;5076831;28;20492;-74
2022/02/09 07:31:47;;;;;;;8.07;5.80;;;10.00;82.20;;;;;;5093176;28;20023;-74
2022/02/09 07:34:13;;;;;;;10.60;6.35;;;10.00;82.30;;;;;;5095276;28;20099;-74
2022/02/09 07:36:43;;;;;;;11.60;6.63;;;10.10;82.40;;;;;;5073784;28;20028;-74
2022/02/09 07:39:10;;;;;;;11.50;6.47;;;10.10;82.40;;;;;;5093473;28;20020;-74
2022/02/09 07:41:38;;;;;;;11.57;6.55;;;10.10;82.40;;;;;;5093496;28;20395;-74
2022/02/09 07:44:17;;;;;;;8.77;5.82;;;10.10;82.10;;;;;;5072775;28;20024;-74
2022/02/09 07:47:09;;;;;;;9.82;5.90;;;10.10;81.90;;;;;;5105227;28;20023;-74
2022/02/09 07:52:08;;;;;;;10.02;6.38;;;10.00;82.70;;;;;;5095898;28;20024;-74
2022/02/09 07:54:34;;;;;;;10.95;5.88;;;10.00;82.10;;;;;;5094806;28;20035;-74
2022/02/09 07:56:59;;;;;;;10.65;6.25;;;10.00;82.00;;;;;;5094569;28;20020;-74
2022/02/09 07:59:25;;;;;;;11.63;6.63;;;10.10;82.00;;;;;;5093369;28;20059;-74
2022/02/09 08:01:51;;;;;;;10.18;6.43;;;10.10;82.10;;;;;;5091508;28;20092;-73
2022/02/09 08:04:18;;;;;;;9.60;5.72;;;10.10;81.70;;;;;;5096432;28;20059;-74
2022/02/09 08:06:45;;;;;;;11.88;6.60;;;10.00;82.80;;;;;;5091392;28;20088;-74
2022/02/09 08:09:26;;;;;;;9.45;6.30;;;10.10;82.10;;;;;;5092358;28;20035;-75
2022/02/09 08:33:07;;;;;;;8.93;5.63;;;10.10;81.50;;;;;;5096919;28;20435;-73
2022/02/09 08:35:34;;;;;;;9.93;5.85;;;10.10;81.50;;;;;;5099255;28;21791;-73
2022/02/09 08:38:00;;;;;;;9.43;5.97;;;10.10;81.40;;;;;;5098311;28;20153;-72
2022/02/09 08:40:28;;;;;;;9.98;5.47;;;10.00;81.20;;;;;;5104835;28;20445;-71
2022/02/09 08:42:54;;;;;;;9.80;6.30;;;10.10;81.60;;;;;;5100901;28;20040;-77
2022/02/09 08:45:20;;;;;;;10.02;6.22;;;10.10;81.60;;;;;;5094649;28;20034;-67
2022/02/09 08:47:47;;;;;;;9.13;5.88;;;10.00;81.40;;;;;;5098438;28;20032;-68
2022/02/09 08:50:14;;;;;;;9.50;5.68;;;9.90;81.30;;;;;;5088880;28;20065;-68
2022/02/09 08:52:40;;;;;;;9.00;5.65;;;9.90;81.60;;;;;;5086084;28;20032;-68
2022/02/09 08:55:07;;;;;;;10.13;6.70;;;9.90;81.80;;;;;;5092469;28;20020;-68
2022/02/09 08:57:34;;;;;;;9.93;6.15;;;9.90;81.80;;;;;;5087103;28;20534;-67
2022/02/09 09:00:03;;;;;;;10.02;5.95;;;10.00;82.10;;;;;;5093707;28;20019;-68
2022/02/09 09:02:34;;;;;;;10.82;6.65;;;10.00;81.90;;;;;;5090422;28;20098;-68
2022/02/09 09:05:10;;;;;;;9.32;6.30;;;10.10;81.90;;;;;;5081166;28;20116;-68
2022/02/09 09:07:38;;;;;;;11.32;6.28;;;10.00;81.50;;;;;;5089996;28;20027;-68
2022/02/09 09:10:17;;;;;;;9.77;6.28;;;10.00;81.80;;;;;;5079309;28;20024;-68
2022/02/09 10:02:10;;;;;;;8.00;5.22;;;10.00;79.90;;;;;;5097795;28;20444;-74
2022/02/09 10:05:34;;;;;;;7.03;4.53;;;9.60;80.00;;;;;;5088873;28;20024;-72
2022/02/09 10:31:30;;;;;;;7.45;4.75;;;9.90;81.00;;;;;;5079497;28;20086;-69
2022/02/09 10:34:15;;;;;;;5.85;4.47;;;9.80;80.70;;;;;;5087723;28;20044;-70
2022/02/09 10:36:46;;;;;;;7.93;5.20;;;9.90;81.40;;;;;;5080758;28;20400;-68
2022/02/09 10:39:15;;;;;;;8.30;4.90;;;9.90;81.10;;;;;;5077791;28;20028;-69
2022/02/09 10:41:51;;;;;;;7.10;4.75;;;9.90;81.10;;;;;;5088670;28;20031;-68
2022/02/09 10:44:22;;;;;;;7.75;5.00;;;10.00;80.70;;;;;;5076527;28;20385;-68
2022/02/09 10:46:52;;;;;;;7.90;4.88;;;10.00;81.00;;;;;;5088754;28;20035;-68
2022/02/09 10:49:21;;;;;;;7.32;4.20;;;10.00;80.80;;;;;;5088457;28;20012;-69
2022/02/09 10:54:25;;;;;;;9.13;5.30;;;10.10;80.60;;;;;;5087159;28;20032;-68
2022/02/09 10:56:57;;;;;;;7.28;5.10;;;10.10;80.60;;;;;;5090050;28;20488;-69
2022/02/09 10:59:27;;;;;;;5.90;4.20;;;10.10;80.60;;;;;;5075981;28;20035;-69
2022/02/09 11:01:56;;;;;;;9.25;5.25;;;10.20;80.60;;;;;;5089800;28;20116;-69
2022/02/09 11:04:21;;;;;;;7.25;4.50;;;10.20;80.40;;;;;;5073838;28;20020;-71
2022/02/09 11:06:48;;;;;;;8.00;4.95;;;10.20;80.10;;;;;;5085630;28;20431;-69
2022/02/09 11:09:16;;;;;;;9.77;5.50;;;10.10;80.10;;;;;;5082916;28;20021;-70
2022/02/09 11:11:44;;;;;;;8.02;4.95;;;10.10;80.00;;;;;;5077039;28;20028;-68
2022/02/09 11:14:16;;;;;;;8.00;5.10;;;10.00;80.30;;;;;;5074631;28;20051;-69
2022/02/09 11:16:54;;;;;;;8.20;5.20;;;10.10;80.70;;;;;;5089596;28;20031;-68
2022/02/09 11:19:25;;;;;;;8.65;5.03;;;10.20;80.90;;;;;;5080575;28;20391;-77
2022/02/09 11:22:03;;;;;;;7.65;5.20;;;10.30;82.10;;;;;;5101988;27;20039;-77
2022/02/09 11:24:30;;;;;;;9.23;5.63;;;10.30;79.70;;;;;;5085299;28;20062;-79
2022/02/09 11:27:55;;;;;;;9.10;4.90;;;10.10;79.00;;;;;;5070948;28;20113;-69
2022/02/09 11:36:03;;;;;;;7.78;4.82;;;9.60;79.50;;;;;;5087324;28;20052;-68
2022/02/09 11:38:41;;;;;;;10.25;5.35;;;9.60;81.10;;;;;;5076296;28;20031;-68
2022/02/09 11:41:18;;;;;;;7.53;4.50;;;9.70;81.00;;;;;;5098977;28;20052;-71
2022/02/09 11:43:58;;;;;;;8.18;5.45;;;9.80;81.00;;;;;;5104086;28;20039;-69
2022/02/09 11:46:57;;;;;;;6.85;5.18;;;9.90;81.10;;;;;;5104695;28;20020;-77
2022/02/09 11:55:07;;;;;;;7.68;4.72;;;10.10;80.90;;;;;;5089656;28;20544;-69
2022/02/09 12:00:37;;;;;;;9.57;5.55;;;10.30;80.10;;;;;;5095554;28;20031;-75
2022/02/09 12:09:33;;;;;;;8.07;5.03;;;10.40;79.70;;;;;;5093084;28;20038;-76
2022/02/09 12:12:05;;;;;;;9.07;5.50;;;10.40;79.50;;;;;;5084051;28;20028;-75
2022/02/09 12:17:36;;;;;;;9.90;5.93;;;10.40;79.80;;;;;;5080806;28;20047;-76
2022/02/09 12:20:28;;;;;;;9.48;5.88;;;10.30;78.50;;;;;;5085472;28;20040;-76
2022/02/09 12:25:48;;;;;;;9.13;5.55;;;10.40;79.80;;;;;;5086297;28;20021;-68
2022/02/09 12:28:19;;;;;;;8.80;5.47;;;10.40;79.90;;;;;;5084103;28;20100;-68
2022/02/09 12:30:46;;;;;;;9.88;5.70;;;10.50;79.70;;;;;;5096091;28;20395;-68
2022/02/09 12:33:22;;;;;;;8.30;5.38;;;10.50;79.30;;;;;;5077185;28;20625;-68
2022/02/09 12:35:49;;;;;;;8.88;5.75;;;10.40;78.70;;;;;;5098862;27;20025;-69
2022/02/09 12:38:14;;;;;;;8.68;5.68;;;10.40;78.90;;;;;;5097261;28;20028;-68
2022/02/09 12:40:40;;;;;;;8.90;5.95;;;10.40;78.80;;;;;;5105483;28;20396;-68
2022/02/09 12:43:12;;;;;;;9.18;5.70;;;10.30;79.10;;;;;;5081760;28;20043;-69
2022/02/09 12:45:40;;;;;;;10.27;5.82;;;10.40;79.30;;;;;;5068138;28;20512;-68
2022/02/09 12:48:07;;;;;;;7.10;5.05;;;10.40;79.50;;;;;;5087151;28;20099;-68
2022/02/09 12:50:38;;;;;;;9.95;5.93;;;10.50;79.60;;;;;;5105743;28;20024;-68
2022/02/09 12:53:05;;;;;;;7.75;5.53;;;10.60;79.10;;;;;;5075373;28;20036;-68
2022/02/09 12:55:37;;;;;;;8.85;5.13;;;10.60;79.30;;;;;;5092066;28;20024;-68
2022/02/09 12:58:08;;;;;;;9.88;5.90;;;10.60;79.40;;;;;;5079171;28;20032;-68
2022/02/09 13:00:42;;;;;;;11.43;6.13;;;10.70;78.80;;;;;;5084926;28;20028;-68
2022/02/09 13:03:09;;;;;;;10.55;5.95;;;10.70;78.90;;;;;;5086963;28;20126;-68
2022/02/09 13:05:43;;;;;;;10.73;6.28;;;10.70;79.80;;;;;;5087573;28;20045;-68
2022/02/09 13:08:10;;;;;;;9.68;5.75;;;10.60;78.60;;;;;;5075465;28;20043;-68
2022/02/09 13:10:38;;;;;;;9.50;5.95;;;10.60;78.60;;;;;;5088179;28;20017;-68
2022/02/09 13:13:19;;;;;;;8.70;5.22;;;10.60;78.60;;;;;;5089238;28;20070;-68
2022/02/09 13:15:54;;;;;;;10.02;5.97;;;10.50;78.80;;;;;;5104851;28;20032;-68
2022/02/09 13:23:58;;;;;;;8.23;5.63;;;10.40;78.70;;;;;;5087049;28;20032;-68
2022/02/09 14:13:27;;;;;;;7.45;4.75;;;10.60;78.30;;;;;;5097853;28;20048;-68
2022/02/09 14:53:58;;;;;;;8.77;4.90;;;10.60;77.40;;;;;;5077522;28;20093;-68
2022/02/09 14:56:38;;;;;;;10.95;6.40;;;10.60;77.80;;;;;;5089569;28;20052;-69
2022/02/09 14:59:05;;;;;;;9.07;5.07;;;10.70;77.60;;;;;;5074243;28;20028;-69
2022/02/09 15:01:43;;;;;;;10.90;6.30;;;10.70;77.70;;;;;;5091802;28;20020;-68
2022/02/09 15:12:32;;;;;;;9.23;5.65;;;10.60;77.50;;;;;;5076896;28;20028;-68
2022/02/09 15:17:46;;;;;;;9.65;5.68;;;10.60;77.40;;;;;;5089558;28;20039;-68
2022/02/09 15:22:43;;;;;;;9.20;4.95;;;10.50;77.40;;;;;;5085816;28;20512;-69
2022/02/09 15:25:21;;;;;;;8.20;5.32;;;10.50;77.30;;;;;;5098569;28;20484;-69
2022/02/09 15:27:50;;;;;;;8.38;4.95;;;10.50;77.70;;;;;;5086624;28;20028;-69
2022/02/09 15:30:16;;;;;;;7.20;4.95;;;10.50;77.50;;;;;;5089388;28;20020;-68
2022/02/09 15:32:46;;;;;;;7.20;4.75;;;10.50;77.00;;;;;;5091186;28;20399;-68
2022/02/09 16:23:32;;;;;;;9.35;5.88;;;10.40;76.70;;;;;;5077162;28;20032;-68
2022/02/09 16:35:32;;;;;;;8.25;5.03;;;10.50;76.80;;;;;;5025628;28;20036;-68
2022/02/09 16:45:16;;;;;;;8.93;6.20;;;10.10;76.90;;;;;;5041530;28;20044;-67
2022/02/09 16:48:03;;;;;;;8.70;5.72;;;10.00;76.80;;;;;;5030050;28;20029;-67
2022/02/09 16:50:47;;;;;;;8.55;5.20;;;9.90;76.70;;;;;;5029826;28;20025;-67
2022/02/09 16:53:33;;;;;;;9.65;5.82;;;9.90;77.30;;;;;;5042599;28;20160;-67
2022/02/09 17:19:51;;;;;;;9.63;5.55;;;9.60;77.90;;;;;;5079882;28;20097;-68
2022/02/09 17:22:17;;;;;;;8.35;5.28;;;9.70;77.90;;;;;;5081354;28;20099;-68
2022/02/09 17:24:42;;;;;;;7.88;5.30;;;9.70;77.60;;;;;;5081326;28;20048;-67
2022/02/09 17:27:16;;;;;;;7.13;5.05;;;9.70;77.40;;;;;;5099001;27;20040;-69
2022/02/09 17:30:17;;;;;;;;;;;9.70;77.70;;;;;;5082835;28;20024;-68
2022/02/09 17:32:51;;;;;;;7.07;5.18;;;9.80;77.90;;;;;;5083264;28;19915;-68
2022/02/09 17:35:23;;;;;;;9.23;5.63;;;9.80;77.60;;;;;;5060830;28;20043;-68
2022/02/09 17:38:26;;;;;;;8.93;5.55;;;9.80;77.20;;;;;;5082316;28;20024;-67
2022/02/09 17:56:58;;;;;;;10.20;6.85;;;9.90;77.40;;;;;;5088288;28;20028;-67
2022/02/09 17:59:25;;;;;;;12.05;7.70;;;10.00;77.50;;;;;;5063631;28;20858;-67
2022/02/09 18:01:51;;;;;;;14.40;8.30;;;10.00;77.10;;;;;;5081935;28;20819;-68
2022/02/09 18:04:20;;;;;;;14.02;8.52;;;9.90;76.80;;;;;;5082117;28;20066;-67
2022/02/09 18:06:54;;;;;;;14.55;8.63;;;9.90;77.00;;;;;;5082282;28;20031;-67
2022/02/09 18:09:28;;;;;;;14.05;8.35;;;9.80;77.30;;;;;;5076299;28;20035;-67
2022/02/09 18:30:56;;;;;;;12.75;8.00;;;9.80;77.70;;;;;;5079049;28;20020;-67
2022/02/09 18:44:34;;;;;;;13.55;8.23;;;9.90;77.70;;;;;;5032582;28;20542;-68
2022/02/09 19:03:23;;;;;;;11.80;8.25;;;10.00;77.90;;;;;;4991718;28;19924;-68
2022/02/09 19:05:51;;;;;;;14.20;8.48;;;10.00;77.80;;;;;;4969768;28;20037;-68
2022/02/09 19:32:58;;;;;;;11.40;8.13;;;9.90;77.40;;;;;;5091646;28;20044;-70
2022/02/09 19:49:17;;;;;;;17.40;11.00;;;9.80;78.00;;;;;;5049165;28;20044;-69
2022/02/09 19:56:45;;;;;;;13.80;8.85;;;9.80;78.10;;;;;;5048244;28;20025;-70
2022/02/09 19:59:19;;;;;;;14.98;9.80;;;9.90;78.00;;;;;;5032751;28;20537;-72
2022/02/09 20:01:46;;;;;;;14.98;9.43;;;9.90;77.60;;;;;;5055790;28;20025;-71
2022/02/09 20:04:14;;;;;;;17.25;10.77;;;9.90;77.70;;;;;;5054747;28;20048;-71
2022/02/09 20:06:41;;;;;;;16.30;9.27;;;9.90;77.60;;;;;;5051592;28;20095;-71
2022/02/09 20:09:06;;;;;;;13.68;8.77;;;9.90;78.10;;;;;;5048159;28;20532;-72
2022/02/09 20:11:35;;;;;;;16.60;10.57;;;9.90;78.00;;;;;;5065320;28;20025;-71
2022/02/09 20:14:01;;;;;;;20.75;11.13;;;9.80;77.60;;;;;;5041039;28;20030;-69
2022/02/09 20:16:27;;;;;;;17.70;10.00;;;9.90;78.00;;;;;;5041313;28;20094;-69
2022/02/09 20:18:54;;;;;;;15.77;9.63;;;9.80;78.10;;;;;;5024940;28;20034;-68
2022/02/09 20:21:22;;;;;;;16.52;9.98;;;9.90;78.10;;;;;;5033296;28;20029;-69
2022/02/09 20:23:50;;;;;;;15.75;9.15;;;9.90;78.00;;;;;;5033166;28;20473;-69
2022/02/09 20:26:17;;;;;;;18.58;10.77;;;9.90;77.90;;;;;;5031472;28;20083;-70
2022/02/09 20:28:50;;;;;;;14.25;9.23;;;9.90;77.70;;;;;;5053503;28;20037;-71
2022/02/09 20:31:20;;;;;;;17.67;10.52;;;9.80;77.80;;;;;;5052284;28;20036;-69
2022/02/09 20:33:52;;;;;;;16.85;10.05;;;9.80;77.70;;;;;;5050100;28;20025;-69
2022/02/09 20:36:19;;;;;;;16.75;10.23;;;9.80;78.00;;;;;;5038757;28;20037;-71
2022/02/09 20:38:49;;;;;;;19.23;10.90;;;9.80;78.50;;;;;;5038690;28;20032;-72
2022/02/09 20:41:17;;;;;;;17.70;10.63;;;9.80;78.10;;;;;;5041137;28;20033;-69
2022/02/09 20:43:59;;;;;;;15.32;8.95;;;9.80;78.40;;;;;;5040412;28;20123;-71
2022/02/09 20:46:27;;;;;;;15.55;9.68;;;9.80;78.30;;;;;;5040474;28;20069;-70
2022/02/09 20:48:53;;;;;;;18.33;10.73;;;9.80;78.00;;;;;;5040633;28;20323;-70
2022/02/09 20:51:22;;;;;;;17.73;10.30;;;9.90;78.10;;;;;;5043677;28;20029;-69
2022/02/09 20:53:48;;;;;;;14.52;8.45;;;9.80;78.10;;;;;;5049525;28;20025;-69
2022/02/09 20:56:13;;;;;;;16.25;9.63;;;9.80;78.20;;;;;;5050218;28;20028;-69
2022/02/09 20:58:43;;;;;;;14.80;8.82;;;9.90;78.20;;;;;;5050906;28;20032;-69
2022/02/09 21:01:13;;;;;;;16.35;9.90;;;9.90;78.00;;;;;;5051213;28;20021;-69
2022/02/09 21:03:48;;;;;;;18.88;10.82;;;10.00;78.20;;;;;;5049853;28;20627;-68
2022/02/09 21:14:18;;;;;;;18.58;9.07;;;9.90;77.80;;;;;;5064970;28;20572;-69
2022/02/09 21:17:09;;;;;;;15.10;8.45;;;9.90;77.90;;;;;;5094438;28;20488;-68
2022/02/09 21:25:08;;;;;;;16.65;9.35;;;10.00;78.00;;;;;;5089213;28;20040;-68
2022/02/09 21:49:16;;;;;;;16.67;9.55;;;9.90;77.60;;;;;;5048491;28;20428;-68
2022/02/09 22:48:35;;;;;;;20.10;10.55;;;9.90;77.70;;;;;;5095435;28;20024;-69
2022/02/09 22:56:30;;;;;;;28.92;15.30;;;9.90;77.40;;;;;;5094222;28;20161;-69
2022/02/09 22:58:57;;;;;;;19.38;10.90;;;9.90;77.20;;;;;;5073779;28;20040;-68
2022/02/09 23:01:49;;;;;;;17.02;10.68;;;9.90;77.30;;;;;;5097256;28;20020;-68
2022/02/09 23:09:41;;;;;;;17.67;10.27;;;9.80;77.90;;;;;;5094643;28;20553;-68
2022/02/09 23:23:26;;;;;;;17.58;10.65;;;9.80;78.10;;;;;;5096066;28;20047;-69
2022/02/09 23:55:54;;;;;;;18.23;10.23;;;9.50;78.20;;;;;;5095335;28;20115;-68
2022/02/09 23:58:42;;;;;;;13.65;8.23;;;9.50;78.20;;;;;;5094427;28;20127;-69
